Time;durP1;ratioP1;P1;durP2;ratioP2;P2;SDS_P1;SDS_P2;PMS_P1;PMS_P2;Temp;Humidity;BMP_temperature;BMP_pressure;BME280_temperature;BME280_humidity;BME280_pressure;Samples;Min_cycle;Max_cycle;Signal;HPM_P1;HPM_P2
2023/03/06 00:01:54;;;;;;;33.47;21.50;;;8.60;65.90;;;;;;6216128;23;20005;-65
2023/03/06 00:04:20;;;;;;;34.00;20.37;;;8.50;66.10;;;;;;6215932;23;20072;-65
2023/03/06 00:06:45;;;;;;;31.80;21.13;;;8.60;66.30;;;;;;6216212;23;20011;-65
2023/03/06 00:09:11;;;;;;;33.07;20.40;;;8.50;66.20;;;;;;6215723;23;20000;-65
2023/03/06 00:11:37;;;;;;;32.10;20.83;;;8.50;66.40;;;;;;6215557;23;20031;-65
2023/03/06 00:14:03;;;;;;;29.27;18.90;;;8.40;66.60;;;;;;6215809;23;20050;-65
2023/03/06 00:16:28;;;;;;;35.70;18.60;;;8.40;66.60;;;;;;6215702;23;20085;-66
2023/03/06 00:18:54;;;;;;;32.77;20.57;;;8.40;66.50;;;;;;6215823;23;20370;-65
2023/03/06 00:21:20;;;;;;;29.27;19.13;;;8.40;66.50;;;;;;6215477;23;20075;-65
2023/03/06 00:23:45;;;;;;;35.07;20.60;;;8.40;66.70;;;;;;6215709;23;20052;-65
2023/03/06 00:26:11;;;;;;;33.60;19.60;;;8.40;66.20;;;;;;6215892;23;20389;-65
2023/03/06 00:28:37;;;;;;;36.10;19.67;;;8.40;66.40;;;;;;6215647;23;20008;-63
2023/03/06 00:31:03;;;;;;;31.90;19.97;;;8.40;66.60;;;;;;6215907;23;20343;-65
2023/03/06 00:33:29;;;;;;;28.50;18.83;;;8.30;66.50;;;;;;6215622;23;20015;-65
2023/03/06 00:35:54;;;;;;;34.73;18.60;;;8.30;66.60;;;;;;6213916;23;20005;-65
2023/03/06 00:38:20;;;;;;;34.73;18.90;;;8.30;66.60;;;;;;6215598;23;20072;-65
2023/03/06 00:40:46;;;;;;;33.27;19.70;;;8.30;66.50;;;;;;6215605;23;20050;-66
2023/03/06 00:43:12;;;;;;;32.40;19.17;;;8.30;66.60;;;;;;6216109;23;20008;-65
2023/03/06 00:45:38;;;;;;;33.17;18.53;;;8.40;66.90;;;;;;6215730;23;20039;-65
2023/03/06 00:48:04;;;;;;;28.70;19.20;;;8.40;66.80;;;;;;6215199;23;20013;-65
2023/03/06 00:50:30;;;;;;;32.97;19.30;;;8.30;66.80;;;;;;6215528;23;20001;-65
2023/03/06 00:52:55;;;;;;;32.17;19.43;;;8.30;67.00;;;;;;6188945;23;20088;-65
2023/03/06 00:55:21;;;;;;;31.80;19.10;;;8.30;67.10;;;;;;6215481;23;20098;-66
2023/03/06 00:57:47;;;;;;;35.37;19.23;;;8.40;67.20;;;;;;6215454;23;20011;-65
2023/03/06 01:00:13;;;;;;;33.40;19.70;;;8.40;67.20;;;;;;6215501;23;20001;-65
2023/03/06 01:02:40;;;;;;;33.40;18.33;;;8.40;67.40;;;;;;6188988;23;20008;-65
2023/03/06 01:05:07;;;;;;;32.57;19.57;;;8.40;67.50;;;;;;6215301;23;20001;-65
2023/03/06 01:07:35;;;;;;;31.67;18.40;;;8.40;67.20;;;;;;6215522;23;20001;-64
2023/03/06 01:10:02;;;;;;;30.83;19.27;;;8.40;67.20;;;;;;6215493;23;20004;-65
2023/03/06 01:12:27;;;;;;;31.70;19.10;;;8.40;67.20;;;;;;6214968;23;20035;-65
2023/03/06 01:14:53;;;;;;;29.53;18.50;;;8.40;67.20;;;;;;6215286;23;20009;-65
2023/03/06 01:17:19;;;;;;;30.57;19.57;;;8.40;67.20;;;;;;6215560;23;20005;-65
2023/03/06 01:19:45;;;;;;;36.10;19.80;;;8.40;67.30;;;;;;6215393;23;20458;-65
2023/03/06 01:22:10;;;;;;;29.53;18.73;;;8.40;67.60;;;;;;6215156;23;19997;-66
2023/03/06 01:24:36;;;;;;;30.80;19.57;;;8.40;67.80;;;;;;6215168;23;20083;-66
2023/03/06 01:27:02;;;;;;;28.90;18.70;;;8.40;67.60;;;;;;6214972;23;20000;-65
2023/03/06 01:29:28;;;;;;;31.37;18.53;;;8.40;67.80;;;;;;6214880;23;20102;-65
2023/03/06 01:31:53;;;;;;;29.20;17.97;;;8.40;67.70;;;;;;6215034;23;20001;-65
2023/03/06 01:34:19;;;;;;;35.70;18.10;;;8.40;67.70;;;;;;6214787;23;20031;-63
2023/03/06 01:36:45;;;;;;;30.00;19.37;;;8.40;67.80;;;;;;6215668;23;20077;-65
2023/03/06 01:39:11;;;;;;;29.03;18.37;;;8.40;68.00;;;;;;6215358;23;20008;-65
2023/03/06 01:41:36;;;;;;;29.63;19.07;;;8.40;68.10;;;;;;6214992;23;19997;-66
2023/03/06 01:44:02;;;;;;;35.23;19.20;;;8.40;68.10;;;;;;6215198;23;20000;-66
2023/03/06 01:46:28;;;;;;;33.60;19.13;;;8.40;67.90;;;;;;6215228;23;19996;-65
2023/03/06 01:49:20;;;;;;;31.27;18.60;;;8.40;67.80;;;;;;6214867;23;20560;-66
2023/03/06 01:51:52;;;;;;;30.50;19.00;;;8.40;67.70;;;;;;6215540;23;20317;-65
2023/03/06 01:54:25;;;;;;;32.33;18.33;;;8.40;67.60;;;;;;6214747;23;20004;-66
2023/03/06 01:56:55;;;;;;;28.03;16.57;;;8.40;67.60;;;;;;6188128;23;20008;-66
2023/03/06 01:59:22;;;;;;;31.63;18.70;;;8.40;67.70;;;;;;6211370;23;20004;-66
2023/03/06 02:01:49;;;;;;;31.27;18.33;;;8.40;67.90;;;;;;6211958;23;20004;-66
2023/03/06 02:04:16;;;;;;;32.47;19.00;;;8.40;68.30;;;;;;6212464;23;20008;-66
2023/03/06 02:06:42;;;;;;;27.27;17.70;;;8.40;68.50;;;;;;6214747;23;20024;-66
2023/03/06 02:09:09;;;;;;;30.33;18.00;;;8.40;68.90;;;;;;6214945;23;20001;-66
2023/03/06 02:11:35;;;;;;;27.27;18.10;;;8.40;68.80;;;;;;6215107;23;20424;-64
2023/03/06 02:14:01;;;;;;;34.70;19.17;;;8.40;68.90;;;;;;6214432;23;20032;-66
2023/03/06 02:16:29;;;;;;;28.70;18.17;;;8.40;68.90;;;;;;6214912;23;20428;-65
2023/03/06 02:18:59;;;;;;;30.03;18.17;;;8.40;69.10;;;;;;6214996;23;20305;-64
2023/03/06 02:21:30;;;;;;;26.77;17.63;;;8.40;69.30;;;;;;6214590;23;20005;-63
2023/03/06 02:24:02;;;;;;;24.03;15.90;;;8.40;69.50;;;;;;6214699;23;20072;-64
2023/03/06 02:26:28;;;;;;;25.57;14.93;;;8.40;69.50;;;;;;6214796;23;20008;-65
2023/03/06 02:28:56;;;;;;;25.10;15.10;;;8.50;69.30;;;;;;6214891;23;20079;-64
2023/03/06 02:31:25;;;;;;;25.63;14.90;;;8.50;69.20;;;;;;6215426;23;20395;-65
2023/03/06 02:34:12;;;;;;;21.90;12.90;;;8.50;69.10;;;;;;6215510;23;20017;-64
2023/03/06 02:36:45;;;;;;;27.17;12.60;;;8.50;68.80;;;;;;6214709;23;20071;-64
2023/03/06 02:39:12;;;;;;;;;;;8.50;68.40;;;;;;6215461;23;20083;-65
2023/03/06 02:41:38;;;;;;;21.83;11.93;;;8.60;68.10;;;;;;6215428;23;19939;-64
2023/03/06 02:44:04;;;;;;;24.60;13.03;;;8.60;68.00;;;;;;6216912;23;20062;-64
2023/03/06 02:46:29;;;;;;;20.87;12.20;;;8.60;67.80;;;;;;6216429;23;20043;-64
2023/03/06 02:48:55;;;;;;;19.37;12.20;;;8.70;67.70;;;;;;6216608;23;20013;-65
2023/03/06 02:51:22;;;;;;;21.60;11.83;;;8.70;67.40;;;;;;6216300;23;20008;-64
2023/03/06 02:53:47;;;;;;;18.33;12.03;;;8.70;67.50;;;;;;6216541;23;20134;-64
2023/03/06 02:56:14;;;;;;;19.33;11.50;;;8.70;67.80;;;;;;6216299;23;20450;-64
2023/03/06 02:58:39;;;;;;;19.97;12.40;;;8.70;67.80;;;;;;6216432;23;20036;-64
2023/03/06 03:01:06;;;;;;;18.00;12.30;;;8.70;67.90;;;;;;6216712;23;20067;-64
2023/03/06 03:03:32;;;;;;;21.47;12.50;;;8.70;68.10;;;;;;6216475;23;20009;-64
2023/03/06 03:05:59;;;;;;;23.10;12.63;;;8.70;68.30;;;;;;6216322;23;20007;-64
2023/03/06 03:08:25;;;;;;;25.40;13.80;;;8.80;68.20;;;;;;6216266;23;20012;-64
2023/03/06 03:10:50;;;;;;;20.80;12.40;;;8.80;68.00;;;;;;6216412;23;20324;-64
2023/03/06 03:13:18;;;;;;;25.63;14.47;;;8.70;68.00;;;;;;6216312;23;20008;-64
2023/03/06 03:15:44;;;;;;;25.30;13.80;;;8.70;68.40;;;;;;6216034;23;20332;-64
2023/03/06 03:18:10;;;;;;;21.23;13.23;;;8.70;68.50;;;;;;6216709;23;20001;-65
2023/03/06 03:20:40;;;;;;;21.00;12.53;;;8.70;68.60;;;;;;6216588;23;20016;-64
2023/03/06 03:23:05;;;;;;;21.97;13.27;;;8.70;68.80;;;;;;6216267;23;20044;-64
2023/03/06 03:25:31;;;;;;;20.30;13.40;;;8.70;69.00;;;;;;6216449;23;20005;-65
2023/03/06 03:27:57;;;;;;;21.17;13.77;;;8.70;68.90;;;;;;6216205;23;20075;-64
2023/03/06 03:30:22;;;;;;;21.97;12.47;;;8.70;68.90;;;;;;6216844;23;20008;-64
2023/03/06 03:32:48;;;;;;;22.60;13.20;;;8.70;68.90;;;;;;6215997;23;20013;-64
2023/03/06 03:35:14;;;;;;;23.13;12.60;;;8.70;69.10;;;;;;6215836;23;20001;-65
2023/03/06 03:37:40;;;;;;;22.13;12.43;;;8.70;69.10;;;;;;6216470;23;20015;-64
2023/03/06 03:40:07;;;;;;;19.20;12.07;;;8.70;68.70;;;;;;6216405;23;20318;-65
2023/03/06 03:42:33;;;;;;;23.80;12.67;;;8.70;68.40;;;;;;6216200;23;20011;-64
2023/03/06 03:44:59;;;;;;;17.40;11.97;;;8.80;68.90;;;;;;6215898;23;20054;-64
2023/03/06 03:47:25;;;;;;;17.40;11.90;;;8.70;68.50;;;;;;6215614;23;20008;-64
2023/03/06 03:49:50;;;;;;;22.63;12.07;;;8.80;68.50;;;;;;6216006;23;20334;-65
2023/03/06 03:52:16;;;;;;;22.30;12.20;;;8.80;68.50;;;;;;6215827;23;19997;-65
2023/03/06 03:54:42;;;;;;;21.80;12.33;;;8.70;68.60;;;;;;6216015;23;20004;-64
2023/03/06 03:57:08;;;;;;;17.50;11.80;;;8.80;68.70;;;;;;6215982;23;20001;-64
2023/03/06 03:59:33;;;;;;;20.13;11.57;;;8.80;68.70;;;;;;6216269;23;20000;-65
2023/03/06 04:01:59;;;;;;;17.37;12.63;;;8.80;68.50;;;;;;6215814;23;20003;-63
2023/03/06 04:04:25;;;;;;;19.33;12.00;;;8.80;68.80;;;;;;6215392;23;20075;-64
2023/03/06 04:06:51;;;;;;;20.33;12.13;;;8.80;69.00;;;;;;6215924;23;20001;-64
2023/03/06 04:09:16;;;;;;;19.87;12.90;;;8.80;68.80;;;;;;6216024;23;20012;-64
2023/03/06 04:11:42;;;;;;;18.43;11.63;;;8.80;68.80;;;;;;6216195;23;19996;-65
2023/03/06 04:14:08;;;;;;;22.73;12.37;;;8.80;68.70;;;;;;6215856;23;20015;-65
2023/03/06 04:16:34;;;;;;;18.83;11.27;;;8.80;68.60;;;;;;6215694;23;20007;-64
2023/03/06 04:19:00;;;;;;;23.93;12.37;;;8.80;68.60;;;;;;6215730;23;20427;-64
2023/03/06 04:21:28;;;;;;;22.27;11.43;;;8.80;68.50;;;;;;6215949;23;20010;-65
2023/03/06 04:23:53;;;;;;;21.70;12.40;;;8.80;68.50;;;;;;6215895;23;20007;-64
2023/03/06 04:26:19;;;;;;;17.70;11.80;;;8.80;68.50;;;;;;6215934;23;20001;-65
2023/03/06 04:28:45;;;;;;;19.47;11.30;;;8.70;68.50;;;;;;6215523;23;20001;-65
2023/03/06 04:31:11;;;;;;;23.77;13.13;;;8.80;68.30;;;;;;6215626;23;20232;-65
2023/03/06 04:33:37;;;;;;;23.30;12.33;;;8.80;68.10;;;;;;6215684;23;20020;-65
2023/03/06 04:36:03;;;;;;;18.93;11.13;;;8.70;67.80;;;;;;6215672;23;20001;-65
2023/03/06 04:38:29;;;;;;;20.77;12.30;;;8.70;67.80;;;;;;6215755;23;20505;-65
2023/03/06 04:40:55;;;;;;;20.63;11.77;;;8.70;67.60;;;;;;6215743;23;20005;-65
2023/03/06 04:43:21;;;;;;;18.23;11.90;;;8.70;67.40;;;;;;6215827;23;20008;-65
2023/03/06 04:45:47;;;;;;;19.80;11.23;;;8.70;67.40;;;;;;6215627;23;20332;-65
2023/03/06 04:48:15;;;;;;;19.23;11.23;;;8.70;67.30;;;;;;6215321;23;20012;-66
2023/03/06 04:50:41;;;;;;;22.23;12.43;;;8.80;67.10;;;;;;6215682;23;20007;-65
2023/03/06 04:53:07;;;;;;;23.80;13.33;;;8.80;66.90;;;;;;6215227;23;20012;-65
2023/03/06 04:55:33;;;;;;;20.20;12.80;;;8.80;67.00;;;;;;6215605;23;20070;-64
2023/03/06 04:57:59;;;;;;;23.47;13.30;;;8.80;67.20;;;;;;6215582;23;20004;-64
2023/03/06 05:00:30;;;;;;;20.20;12.53;;;8.80;66.90;;;;;;6215484;23;20000;-64
2023/03/06 05:02:58;;;;;;;19.73;11.43;;;8.80;67.00;;;;;;6215272;23;20001;-64
2023/03/06 05:05:24;;;;;;;17.90;11.47;;;8.80;67.30;;;;;;6188246;23;20013;-65
2023/03/06 05:07:50;;;;;;;19.67;11.90;;;8.80;67.60;;;;;;6215538;23;20067;-65
2023/03/06 05:10:17;;;;;;;23.80;12.07;;;8.80;67.60;;;;;;6215604;23;20454;-65
2023/03/06 05:12:43;;;;;;;21.70;11.77;;;8.80;68.00;;;;;;6215375;23;20070;-64
2023/03/06 05:15:10;;;;;;;19.93;11.70;;;8.80;67.90;;;;;;6215216;23;20475;-64
2023/03/06 05:17:37;;;;;;;20.30;11.03;;;8.80;67.70;;;;;;6215250;23;20004;-65
2023/03/06 05:20:05;;;;;;;20.33;11.93;;;8.80;67.40;;;;;;6215321;23;20020;-65
2023/03/06 05:22:32;;;;;;;23.17;11.53;;;8.80;67.30;;;;;;6215328;23;20486;-65
2023/03/06 05:24:58;;;;;;;19.77;12.13;;;8.80;67.10;;;;;;6188790;23;20000;-65
2023/03/06 05:27:24;;;;;;;21.70;11.43;;;8.80;67.00;;;;;;6215292;23;20335;-65
2023/03/06 05:29:50;;;;;;;20.97;10.47;;;8.80;67.20;;;;;;6215162;23;19996;-65
2023/03/06 05:32:16;;;;;;;23.23;10.43;;;8.90;67.20;;;;;;6215500;23;20003;-65
2023/03/06 05:34:42;;;;;;;19.13;10.80;;;8.80;67.10;;;;;;6215475;23;20339;-64
2023/03/06 05:37:08;;;;;;;22.13;10.57;;;8.80;67.10;;;;;;6215327;23;20004;-64
2023/03/06 05:39:33;;;;;;;22.23;11.33;;;8.80;67.30;;;;;;6215134;23;20001;-65
2023/03/06 05:41:59;;;;;;;22.27;11.93;;;8.80;67.30;;;;;;6215299;23;20032;-65
2023/03/06 05:44:33;;;;;;;20.03;12.00;;;8.80;67.40;;;;;;6215118;23;20023;-64
2023/03/06 05:46:59;;;;;;;24.13;12.37;;;8.80;67.40;;;;;;6215321;23;20075;-64
2023/03/06 05:49:25;;;;;;;28.87;12.77;;;8.80;67.40;;;;;;6215169;23;20047;-64
2023/03/06 05:51:51;;;;;;;21.43;12.43;;;8.80;67.30;;;;;;6215161;23;20446;-64
2023/03/06 05:54:17;;;;;;;20.67;12.20;;;8.80;67.60;;;;;;6214794;23;20008;-64
2023/03/06 05:56:43;;;;;;;26.37;12.03;;;8.80;67.60;;;;;;6215101;23;20076;-65
2023/03/06 05:59:08;;;;;;;24.57;11.57;;;8.80;67.60;;;;;;6214740;23;20000;-64
2023/03/06 06:01:34;;;;;;;21.53;11.20;;;8.80;67.70;;;;;;6214802;23;20051;-64
2023/03/06 06:04:00;;;;;;;21.70;11.87;;;8.80;68.00;;;;;;6215011;23;20072;-65
2023/03/06 06:06:26;;;;;;;22.27;11.40;;;8.70;68.30;;;;;;6215065;23;20079;-64
2023/03/06 06:08:51;;;;;;;21.10;11.83;;;8.70;68.40;;;;;;6214816;23;20412;-65
2023/03/06 06:11:19;;;;;;;24.43;12.10;;;8.80;68.50;;;;;;6214593;23;20013;-65
2023/03/06 06:13:47;;;;;;;21.73;11.20;;;8.80;68.60;;;;;;6214882;23;20008;-65
2023/03/06 06:16:15;;;;;;;19.53;11.30;;;8.70;68.50;;;;;;6216037;23;20031;-65
2023/03/06 06:18:41;;;;;;;19.30;10.60;;;8.80;68.50;;;;;;6217140;23;20008;-65
2023/03/06 06:21:09;;;;;;;24.47;11.57;;;8.80;68.40;;;;;;6216880;23;20005;-65
2023/03/06 06:23:35;;;;;;;20.37;11.20;;;8.80;68.40;;;;;;6216422;23;20107;-65
2023/03/06 06:26:06;;;;;;;26.23;11.77;;;8.80;68.60;;;;;;6216712;23;20458;-64
2023/03/06 06:28:32;;;;;;;28.73;12.67;;;8.80;68.70;;;;;;6216836;23;20444;-65
2023/03/06 06:30:58;;;;;;;24.40;12.60;;;8.80;68.80;;;;;;6217125;23;20001;-65
2023/03/06 06:33:24;;;;;;;23.40;12.83;;;8.80;69.00;;;;;;6217222;23;20331;-64
2023/03/06 06:35:50;;;;;;;19.67;12.47;;;8.80;68.80;;;;;;6216628;23;20071;-65
2023/03/06 06:38:16;;;;;;;24.27;12.00;;;8.80;68.70;;;;;;6216959;23;20387;-65
2023/03/06 06:40:42;;;;;;;20.40;12.43;;;8.80;68.70;;;;;;6216618;23;20001;-65
2023/03/06 06:43:08;;;;;;;26.00;12.73;;;8.80;68.90;;;;;;6216683;23;20009;-64
2023/03/06 06:45:34;;;;;;;18.83;12.27;;;8.80;68.90;;;;;;6216506;23;20415;-64
2023/03/06 06:48:01;;;;;;;20.20;12.33;;;8.80;69.20;;;;;;6216955;23;20023;-65
2023/03/06 06:50:26;;;;;;;23.33;12.87;;;8.80;69.20;;;;;;6216542;23;20032;-65
2023/03/06 06:52:52;;;;;;;22.27;11.60;;;8.80;69.30;;;;;;6216300;23;20036;-66
2023/03/06 06:55:18;;;;;;;24.77;12.70;;;8.80;69.80;;;;;;6216451;23;20001;-65
2023/03/06 06:57:44;;;;;;;20.63;12.30;;;8.80;69.90;;;;;;6216368;23;20008;-65
2023/03/06 07:00:13;;;;;;;28.37;14.23;;;8.90;70.00;;;;;;6216528;23;19996;-65
2023/03/06 07:02:38;;;;;;;40.00;13.80;;;8.90;69.90;;;;;;6216228;23;20001;-65
2023/03/06 07:05:05;;;;;;;23.77;12.37;;;8.90;69.90;;;;;;6215965;23;20359;-65
2023/03/06 07:07:36;;;;;;;28.00;12.43;;;8.90;70.00;;;;;;6216170;23;19996;-64
2023/03/06 07:10:11;;;;;;;27.10;12.57;;;9.00;70.00;;;;;;6216149;23;20001;-64
2023/03/06 07:12:36;;;;;;;26.27;12.07;;;9.00;70.00;;;;;;6213734;23;20001;-64
2023/03/06 07:15:04;;;;;;;20.73;11.93;;;9.00;70.10;;;;;;6215644;23;20008;-65
2023/03/06 07:17:30;;;;;;;25.33;12.53;;;9.00;70.00;;;;;;6215664;23;20000;-65
2023/03/06 07:19:55;;;;;;;23.37;11.60;;;9.10;70.20;;;;;;6215298;23;20007;-64
2023/03/06 07:22:22;;;;;;;25.97;13.00;;;9.10;70.30;;;;;;6214819;23;20012;-65
2023/03/06 07:24:48;;;;;;;30.70;12.17;;;9.10;70.30;;;;;;6215515;23;20000;-65
2023/03/06 07:27:14;;;;;;;26.47;12.40;;;9.20;70.30;;;;;;6215167;23;20008;-64
2023/03/06 07:29:42;;;;;;;24.47;12.00;;;9.20;70.40;;;;;;6215253;23;20001;-67
2023/03/06 07:32:08;;;;;;;19.23;12.00;;;9.20;70.60;;;;;;6215192;23;20082;-65
2023/03/06 07:34:34;;;;;;;21.67;10.90;;;9.30;70.80;;;;;;6214785;23;20020;-66
2023/03/06 07:37:00;;;;;;;21.73;11.33;;;9.30;70.90;;;;;;6215395;23;20001;-65
2023/03/06 07:39:26;;;;;;;23.10;11.80;;;9.30;70.80;;;;;;6215571;23;20091;-67
2023/03/06 07:41:52;;;;;;;24.27;11.97;;;9.30;70.90;;;;;;6215180;23;20089;-66
2023/03/06 07:44:18;;;;;;;21.03;12.10;;;9.30;70.90;;;;;;6214990;23;20036;-66
2023/03/06 07:46:44;;;;;;;30.37;13.60;;;9.30;71.00;;;;;;6215042;23;20051;-71
2023/03/06 07:49:10;;;;;;;22.53;13.67;;;9.40;71.50;;;;;;6214720;23;20044;-65
2023/03/06 07:51:36;;;;;;;23.57;13.17;;;9.40;71.80;;;;;;6214771;23;20001;-66
2023/03/06 07:54:02;;;;;;;26.27;14.00;;;9.40;72.00;;;;;;6214823;23;20024;-65
2023/03/06 07:56:27;;;;;;;20.17;13.47;;;9.40;72.40;;;;;;6215932;23;20051;-65
2023/03/06 07:58:53;;;;;;;28.40;13.10;;;9.40;72.60;;;;;;6215752;23;20431;-65
2023/03/06 08:01:22;;;;;;;23.93;14.13;;;9.50;72.90;;;;;;6215828;23;19997;-65
2023/03/06 08:03:48;;;;;;;25.83;13.13;;;9.50;72.90;;;;;;6215854;23;20423;-64
2023/03/06 08:06:20;;;;;;;20.30;12.47;;;9.50;72.80;;;;;;6215592;23;20001;-65
2023/03/06 08:08:47;;;;;;;22.03;11.57;;;9.50;72.70;;;;;;6215715;23;20004;-65
2023/03/06 08:11:15;;;;;;;23.93;12.17;;;9.50;72.70;;;;;;6216180;23;20073;-65
2023/03/06 08:13:41;;;;;;;22.80;12.40;;;9.60;73.60;;;;;;6215488;23;20044;-65
2023/03/06 08:16:08;;;;;;;20.07;11.73;;;9.60;73.20;;;;;;6215945;23;19992;-65
2023/03/06 08:18:34;;;;;;;25.30;12.63;;;9.60;73.50;;;;;;6215942;23;20075;-65
2023/03/06 08:21:07;;;;;;;22.83;12.30;;;9.70;72.70;;;;;;6215772;23;20001;-65
2023/03/06 08:23:34;;;;;;;19.10;11.93;;;9.70;72.60;;;;;;6215800;23;20403;-65
2023/03/06 08:26:05;;;;;;;21.57;12.80;;;9.80;72.70;;;;;;6215734;23;20436;-65
2023/03/06 08:28:32;;;;;;;27.92;13.02;;;9.70;72.70;;;;;;6215642;23;20035;-65
2023/03/06 08:31:05;;;;;;;20.30;12.80;;;9.80;73.00;;;;;;6216022;23;20476;-65
2023/03/06 08:33:31;;;;;;;45.90;34.03;;;9.80;72.90;;;;;;6215531;23;20012;-65
2023/03/06 08:35:57;;;;;;;31.90;17.20;;;9.80;73.30;;;;;;6215609;23;20007;-66
2023/03/06 08:38:22;;;;;;;52.83;37.37;;;9.80;73.60;;;;;;6215580;23;20063;-64
2023/03/06 08:40:48;;;;;;;39.57;26.00;;;9.80;73.50;;;;;;6215518;23;20003;-65
2023/03/06 08:43:14;;;;;;;23.67;13.80;;;9.90;73.90;;;;;;6215389;23;20005;-65
2023/03/06 08:45:40;;;;;;;20.80;12.40;;;9.90;73.80;;;;;;6215938;23;20008;-65
2023/03/06 08:48:05;;;;;;;25.40;12.40;;;9.90;73.80;;;;;;6215190;23;20422;-65
2023/03/06 08:50:31;;;;;;;27.63;13.13;;;10.00;73.70;;;;;;6215400;23;20075;-66
2023/03/06 08:52:57;;;;;;;27.80;12.97;;;10.00;74.00;;;;;;6215266;23;20082;-65
2023/03/06 08:55:23;;;;;;;28.40;13.90;;;10.00;74.00;;;;;;6215318;23;20012;-65
2023/03/06 08:57:49;;;;;;;26.90;14.00;;;10.00;74.10;;;;;;6215476;23;20001;-65
2023/03/06 09:00:15;;;;;;;27.30;13.97;;;10.00;74.10;;;;;;6215332;23;20000;-64
2023/03/06 09:02:41;;;;;;;29.03;14.30;;;10.00;74.50;;;;;;6215065;23;20439;-66
2023/03/06 09:05:07;;;;;;;21.83;13.67;;;10.10;74.30;;;;;;6215442;23;20024;-65
2023/03/06 09:07:34;;;;;;;26.47;14.47;;;10.10;74.30;;;;;;6215116;23;20007;-65
2023/03/06 09:10:00;;;;;;;26.67;15.77;;;10.10;74.20;;;;;;6215291;23;20027;-65
2023/03/06 09:12:26;;;;;;;25.83;14.83;;;10.10;74.10;;;;;;6215179;23;20054;-65
2023/03/06 09:14:52;;;;;;;24.87;13.37;;;10.20;74.10;;;;;;6215162;23;20013;-65
2023/03/06 09:17:18;;;;;;;25.67;12.97;;;10.20;74.00;;;;;;6214949;23;20004;-64
2023/03/06 09:19:44;;;;;;;22.03;12.93;;;10.20;73.90;;;;;;6215503;23;20024;-65
2023/03/06 09:22:09;;;;;;;23.87;12.87;;;10.30;73.90;;;;;;6214911;23;20028;-65
2023/03/06 09:24:35;;;;;;;21.73;14.13;;;10.30;74.50;;;;;;6215249;23;20435;-67
2023/03/06 09:27:01;;;;;;;25.37;14.23;;;10.40;74.50;;;;;;6214990;23;20015;-65
2023/03/06 09:29:27;;;;;;;23.10;13.40;;;10.40;74.50;;;;;;6214982;23;20000;-65
2023/03/06 09:31:53;;;;;;;30.33;14.50;;;10.50;74.80;;;;;;6215110;23;20027;-65
2023/03/06 09:34:19;;;;;;;32.43;14.40;;;10.50;75.00;;;;;;6214991;23;20009;-65
2023/03/06 09:36:45;;;;;;;25.07;13.90;;;10.60;75.30;;;;;;6215002;23;20008;-65
2023/03/06 09:39:11;;;;;;;19.77;13.23;;;10.60;75.20;;;;;;6214505;23;20050;-64
2023/03/06 09:41:39;;;;;;;27.53;13.63;;;10.70;75.00;;;;;;6214977;23;20075;-65
2023/03/06 09:44:07;;;;;;;27.87;14.07;;;10.80;75.00;;;;;;6215189;23;20374;-66
2023/03/06 09:47:01;;;;;;;22.27;13.00;;;10.80;75.00;;;;;;6215256;23;20000;-65
2023/03/06 09:49:33;;;;;;;25.83;14.00;;;10.80;74.80;;;;;;6214826;23;20016;-65
2023/03/06 09:52:06;;;;;;;29.57;13.53;;;10.90;74.90;;;;;;6216579;23;20007;-65
2023/03/06 09:54:37;;;;;;;28.42;14.82;;;10.90;74.90;;;;;;6216386;23;20016;-71
2023/03/06 09:57:12;;;;;;;37.70;15.90;;;10.90;74.60;;;;;;6217217;23;20004;-66
2023/03/06 09:59:46;;;;;;;25.57;13.53;;;11.00;74.40;;;;;;6217168;23;20012;-66
2023/03/06 10:02:55;;;;;;;26.43;13.97;;;11.00;74.50;;;;;;6217199;23;20001;-65
2023/03/06 10:05:34;;;;;;;25.30;13.35;;;11.00;74.60;;;;;;6096153;23;20429;-66
2023/03/06 10:08:22;;;;;;;23.55;12.80;;;11.00;74.50;;;;;;6204122;23;20005;-66
2023/03/06 10:10:56;;;;;;;24.37;13.03;;;11.10;74.20;;;;;;6216950;23;20004;-66
2023/03/06 10:13:42;;;;;;;25.52;12.30;;;11.10;74.50;;;;;;6216256;23;20062;-66
2023/03/06 10:16:43;;;;;;;27.67;13.60;;;11.10;74.50;;;;;;6216782;23;20007;-65
2023/03/06 10:19:16;;;;;;;28.17;13.23;;;11.10;74.30;;;;;;6095659;23;20010;-66
2023/03/06 10:21:42;;;;;;;;;;;11.20;74.50;;;;;;6198595;23;20297;-66
2023/03/06 10:24:37;;;;;;;28.00;14.55;;;11.20;75.50;;;;;;6216934;23;19900;-66
2023/03/06 10:27:12;;;;;;;33.20;14.98;;;11.30;76.00;;;;;;6216922;23;20082;-65
2023/03/06 10:30:09;;;;;;;32.65;15.50;;;11.30;77.60;;;;;;6216892;23;20012;-65
2023/03/06 10:32:57;;;;;;;32.77;17.43;;;11.30;78.70;;;;;;6216776;23;19997;-65
2023/03/06 10:35:44;;;;;;;34.17;17.17;;;11.30;78.80;;;;;;6216483;23;20028;-65
2023/03/06 10:38:20;;;;;;;35.53;21.13;;;11.40;78.60;;;;;;6216746;23;20008;-64
2023/03/06 10:41:14;;;;;;;39.78;21.35;;;11.40;79.20;;;;;;6216433;23;20028;-65
2023/03/06 10:44:01;;;;;;;37.57;23.33;;;11.40;79.50;;;;;;6216366;23;20083;-65
2023/03/06 10:46:36;;;;;;;41.80;25.30;;;11.40;79.50;;;;;;6216192;23;20004;-65
2023/03/06 10:49:05;;;;;;;42.30;24.05;;;11.40;80.30;;;;;;6216240;23;20498;-65
2023/03/06 10:51:32;;;;;;;37.25;23.02;;;11.40;80.10;;;;;;6216253;23;20011;-65
2023/03/06 10:54:01;;;;;;;39.38;23.20;;;11.40;79.80;;;;;;6216165;23;20008;-65
2023/03/06 10:56:38;;;;;;;39.10;23.20;;;11.40;79.00;;;;;;6216326;23;20028;-66
2023/03/06 10:59:16;;;;;;;44.15;22.58;;;11.30;78.60;;;;;;6216202;23;20000;-66
2023/03/06 11:01:47;;;;;;;33.25;19.02;;;11.30;78.70;;;;;;6215594;23;20296;-65
2023/03/06 11:04:32;;;;;;;35.10;18.35;;;11.30;78.10;;;;;;6215241;23;20000;-66
2023/03/06 11:07:32;;;;;;;35.80;18.27;;;11.30;77.00;;;;;;6216056;23;20000;-66
2023/03/06 11:10:06;;;;;;;28.35;17.52;;;11.30;77.20;;;;;;6215922;23;20312;-66
2023/03/06 11:12:35;;;;;;;31.25;16.05;;;11.30;77.00;;;;;;6216408;23;20009;-65
2023/03/06 11:15:13;;;;;;;35.88;18.10;;;11.30;76.30;;;;;;6215761;23;19996;-65
2023/03/06 11:17:58;;;;;;;33.03;18.25;;;11.30;76.20;;;;;;6215969;23;20450;-66
2023/03/06 11:20:30;;;;;;;30.85;17.27;;;11.30;76.10;;;;;;6214508;23;20717;-67
2023/03/06 11:23:04;;;;;;;34.00;16.73;;;11.30;76.10;;;;;;6214005;23;20436;-65
2023/03/06 11:26:13;;;;;;;28.13;16.33;;;11.40;76.10;;;;;;6215145;23;20424;-65
2023/03/06 11:29:05;;;;;;;35.13;18.58;;;11.40;76.20;;;;;;6175462;23;20054;-66
2023/03/06 11:31:35;;;;;;;40.67;20.13;;;11.30;77.00;;;;;;6215891;23;20000;-66
2023/03/06 11:34:06;;;;;;;42.55;22.83;;;11.30;78.50;;;;;;6215671;23;20205;-65
2023/03/06 11:36:52;;;;;;;38.72;21.90;;;11.30;79.60;;;;;;6187788;23;20004;-66
2023/03/06 11:39:50;;;;;;;42.08;23.35;;;11.30;80.00;;;;;;6215418;23;20000;-67
2023/03/06 11:42:24;;;;;;;50.22;24.80;;;11.20;80.90;;;;;;6215667;23;20435;-66
2023/03/06 11:45:08;;;;;;;41.30;24.13;;;11.20;82.50;;;;;;6215922;23;20331;-66
2023/03/06 11:47:36;;;;;;;45.50;25.30;;;11.20;85.10;;;;;;6215924;23;20086;-66
2023/03/06 11:50:17;;;;;;;38.50;25.55;;;11.20;86.00;;;;;;6216010;23;20297;-66
2023/03/06 11:52:53;;;;;;;44.90;26.17;;;11.10;87.30;;;;;;6215933;23;20005;-65
2023/03/06 11:55:44;;;;;;;48.93;27.73;;;11.10;88.80;;;;;;6215889;23;20076;-65
2023/03/06 11:58:34;;;;;;;42.60;27.10;;;11.10;90.00;;;;;;6154273;23;20486;-65
2023/03/06 12:01:12;;;;;;;43.37;25.63;;;11.00;90.40;;;;;;6215630;23;20032;-65
2023/03/06 12:03:52;;;;;;;40.85;24.10;;;11.00;91.00;;;;;;6215673;23;20011;-66
2023/03/06 12:06:50;;;;;;;39.70;25.25;;;11.00;91.30;;;;;;6216013;23;20001;-67
2023/03/06 12:09:24;;;;;;;44.38;25.75;;;11.00;91.50;;;;;;6174277;23;19997;-67
2023/03/06 12:12:04;;;;;;;43.20;25.03;;;11.00;91.90;;;;;;6215477;23;20464;-65
2023/03/06 12:14:35;;;;;;;45.45;26.15;;;11.00;92.30;;;;;;6215039;23;20092;-67
2023/03/06 12:17:12;;;;;;;44.00;24.17;;;11.00;92.50;;;;;;6215811;23;20004;-65
2023/03/06 12:20:09;;;;;;;42.08;25.60;;;10.90;92.40;;;;;;6215679;23;20030;-65
2023/03/06 12:22:55;;;;;;;44.07;24.43;;;10.90;92.40;;;;;;6159849;23;20332;-65
2023/03/06 12:25:38;;;;;;;44.17;26.00;;;11.00;92.40;;;;;;6215779;23;20004;-65
2023/03/06 12:28:50;;;;;;;48.00;25.88;;;11.00;92.70;;;;;;6215344;23;20004;-65
2023/03/06 12:31:53;;;;;;;43.20;24.80;;;11.00;92.80;;;;;;6209810;23;20036;-65
2023/03/06 12:34:45;;;;;;;43.92;22.80;;;11.00;92.80;;;;;;6215184;23;20012;-64
2023/03/06 12:37:26;;;;;;;40.17;22.65;;;11.00;92.70;;;;;;6215165;23;20001;-65
2023/03/06 12:40:16;;;;;;;40.83;23.25;;;11.00;92.40;;;;;;6215343;23;20437;-65
2023/03/06 12:43:13;;;;;;;41.50;23.60;;;11.00;92.30;;;;;;6215789;23;20087;-65
2023/03/06 12:45:43;;;;;;;38.53;23.15;;;11.00;92.40;;;;;;6215402;23;20075;-65
2023/03/06 12:48:21;;;;;;;38.63;21.87;;;10.90;92.30;;;;;;6215207;23;20043;-65
2023/03/06 12:50:48;;;;;;;38.50;23.17;;;11.00;92.40;;;;;;6215472;23;20059;-65